Time;durP1;ratioP1;P1;durP2;ratioP2;P2;SDS_P1;SDS_P2;PMS_P1;PMS_P2;Temp;Humidity;BMP_temperature;BMP_pressure;BME280_temperature;BME280_humidity;BME280_pressure;Samples;Min_cycle;Max_cycle;Signal;HPM_P1;HPM_P2
2022/03/02 00:01:57;;;;;;;15.82;6.72;;;-1.40;99.90;;;;;;5027686;28;19920;-62
2022/03/02 00:04:25;;;;;;;18.73;6.30;;;-1.40;99.90;;;;;;5031628;28;20041;-61
2022/03/02 00:06:51;;;;;;;12.10;6.05;;;-1.60;99.90;;;;;;5014070;28;20103;-61
2022/03/02 00:09:18;;;;;;;15.38;6.82;;;-1.60;99.90;;;;;;5030844;28;20045;-61
2022/03/02 00:11:45;;;;;;;14.65;7.03;;;-1.60;99.90;;;;;;5031630;28;20052;-61
2022/03/02 00:14:12;;;;;;;16.95;6.35;;;-1.60;99.90;;;;;;5031415;28;20050;-61
2022/03/02 00:16:40;;;;;;;14.98;7.03;;;-1.60;99.90;;;;;;5029186;28;20045;-61
2022/03/02 00:19:08;;;;;;;18.67;7.15;;;-1.70;99.90;;;;;;5033668;28;20120;-61
2022/03/02 00:21:36;;;;;;;23.42;7.88;;;-1.60;99.90;;;;;;5031173;28;20045;-61
2022/03/02 00:24:03;;;;;;;12.23;6.15;;;-1.70;99.90;;;;;;5031446;28;20069;-60
2022/03/02 00:26:31;;;;;;;;;;;-1.80;99.90;;;;;;5031120;28;20030;-61
2022/03/02 00:28:58;;;;;;;13.02;5.55;;;-1.70;99.90;;;;;;5012550;28;19971;-61
2022/03/02 00:31:25;;;;;;;10.32;4.90;;;-1.80;99.90;;;;;;5047143;28;20050;-61
2022/03/02 00:33:52;;;;;;;13.13;5.45;;;-1.80;99.90;;;;;;5044886;28;20413;-61
2022/03/02 00:36:20;;;;;;;;;;;-1.80;99.90;;;;;;5046227;28;20047;-61
2022/03/02 00:38:47;;;;;;;9.67;4.20;;;-1.80;99.90;;;;;;5047557;28;19952;-61
2022/03/02 00:41:14;;;;;;;21.02;6.38;;;-1.80;99.90;;;;;;5046326;28;20041;-61
2022/03/02 00:43:40;;;;;;;19.63;7.00;;;-1.80;99.90;;;;;;5046831;28;20107;-61
2022/03/02 00:46:07;;;;;;;17.58;6.22;;;-1.90;99.90;;;;;;5033436;28;20092;-61
2022/03/02 00:48:34;;;;;;;23.25;7.28;;;-1.90;99.90;;;;;;5030842;28;20450;-61
2022/03/02 00:51:02;;;;;;;16.80;6.38;;;-1.90;99.90;;;;;;5026301;28;20034;-61
2022/03/02 00:53:29;;;;;;;13.60;6.20;;;-1.90;99.90;;;;;;5031025;28;20207;-61
2022/03/02 00:55:56;;;;;;;15.23;6.38;;;-1.90;99.90;;;;;;5013699;28;20048;-61
2022/03/02 00:58:23;;;;;;;11.52;5.95;;;-1.90;99.90;;;;;;5033471;28;20079;-61
2022/03/02 01:00:50;;;;;;;14.65;6.15;;;-2.00;99.90;;;;;;5034487;28;20041;-61
2022/03/02 01:03:17;;;;;;;15.00;6.07;;;-2.00;99.90;;;;;;5020900;28;20046;-61
2022/03/02 01:05:44;;;;;;;14.65;6.20;;;-2.00;99.90;;;;;;5015496;28;20042;-61
2022/03/02 01:08:11;;;;;;;14.55;6.43;;;-2.00;99.90;;;;;;5023336;28;20116;-61
2022/03/02 01:10:38;;;;;;;10.40;4.60;;;-2.00;99.90;;;;;;5034812;28;20037;-61
2022/03/02 01:13:05;;;;;;;10.95;5.55;;;-2.00;99.90;;;;;;5017194;28;20084;-61
2022/03/02 01:15:32;;;;;;;12.43;6.40;;;-2.00;99.90;;;;;;5034341;28;20069;-61
2022/03/02 01:17:58;;;;;;;13.43;6.53;;;-2.00;99.90;;;;;;5034303;28;20072;-62
2022/03/02 01:20:25;;;;;;;14.07;6.80;;;-2.00;99.90;;;;;;5015085;28;20050;-61
2022/03/02 01:22:52;;;;;;;15.98;6.90;;;-2.00;99.90;;;;;;5014681;28;20042;-61
2022/03/02 01:25:19;;;;;;;16.50;5.85;;;-2.00;99.90;;;;;;5025768;28;20046;-61
2022/03/02 01:27:46;;;;;;;13.25;5.68;;;-2.00;99.90;;;;;;5034165;28;20125;-61
2022/03/02 01:30:13;;;;;;;10.00;5.25;;;-2.10;99.90;;;;;;5034712;28;20087;-61
2022/03/02 01:32:40;;;;;;;12.68;5.07;;;-2.20;99.90;;;;;;5034102;28;20038;-61
2022/03/02 01:35:09;;;;;;;12.90;5.95;;;-2.20;99.90;;;;;;5034361;28;20041;-61
2022/03/02 01:37:36;;;;;;;17.13;5.82;;;-2.20;99.90;;;;;;5034121;28;20120;-61
2022/03/02 01:40:04;;;;;;;11.85;5.60;;;-2.30;99.90;;;;;;5033858;28;20433;-61
2022/03/02 01:42:31;;;;;;;11.90;5.88;;;-2.30;99.90;;;;;;5034299;28;20046;-61
2022/03/02 01:44:58;;;;;;;14.18;5.82;;;-2.30;99.90;;;;;;5034347;28;20043;-61
2022/03/02 01:47:27;;;;;;;12.35;5.07;;;-2.30;99.90;;;;;;5034222;28;20132;-61
2022/03/02 01:49:54;;;;;;;11.68;5.78;;;-2.30;99.90;;;;;;5033622;28;20034;-61
2022/03/02 01:52:21;;;;;;;12.65;5.57;;;-2.30;99.90;;;;;;5034210;28;20063;-61
2022/03/02 01:54:48;;;;;;;10.65;5.20;;;-2.30;99.90;;;;;;5034246;28;20490;-61
2022/03/02 01:57:16;;;;;;;11.45;6.22;;;-2.40;99.90;;;;;;5033595;28;20461;-61
2022/03/02 01:59:43;;;;;;;14.55;5.90;;;-2.30;99.90;;;;;;5015326;28;20045;-61
2022/03/02 02:02:10;;;;;;;13.27;6.32;;;-2.40;99.90;;;;;;5014257;28;20502;-61
2022/03/02 02:04:38;;;;;;;11.57;5.32;;;-2.30;99.90;;;;;;5014183;28;20065;-61
2022/03/02 02:07:05;;;;;;;10.30;5.20;;;-2.30;99.90;;;;;;5023606;28;20429;-61
2022/03/02 02:09:32;;;;;;;9.27;5.22;;;-2.30;99.90;;;;;;5033130;28;20099;-61
2022/03/02 02:11:58;;;;;;;11.48;5.13;;;-2.40;99.90;;;;;;5033675;28;20556;-61
2022/03/02 02:14:26;;;;;;;11.07;5.03;;;-2.40;99.90;;;;;;5033843;28;20103;-61
2022/03/02 02:16:53;;;;;;;;;;;-2.40;99.90;;;;;;5031003;28;20045;-61
2022/03/02 02:19:19;;;;;;;13.70;5.25;;;-2.40;99.90;;;;;;5033193;28;19940;-61
2022/03/02 02:21:47;;;;;;;10.68;4.93;;;-2.50;99.90;;;;;;5050544;22;20045;-58
2022/03/02 02:24:17;;;;;;;;;;;-2.50;99.90;;;;;;5051113;28;20045;-57
2022/03/02 02:26:45;;;;;;;17.63;5.10;;;-2.50;99.90;;;;;;5048651;28;19925;-55
2022/03/02 02:29:12;;;;;;;11.68;5.20;;;-2.40;99.90;;;;;;5053005;28;20036;-56
2022/03/02 02:31:40;;;;;;;12.80;6.32;;;-2.30;99.90;;;;;;5046874;28;20041;-56
2022/03/02 02:34:08;;;;;;;14.23;5.72;;;-2.40;99.90;;;;;;5035778;28;20045;-53
2022/03/02 02:36:38;;;;;;;14.63;5.72;;;-2.50;99.90;;;;;;5033511;28;20041;-57
2022/03/02 02:39:05;;;;;;;12.23;5.57;;;-2.50;99.90;;;;;;5037519;28;20045;-57
2022/03/02 02:41:32;;;;;;;12.15;5.47;;;-2.50;99.90;;;;;;5046129;28;20124;-56
2022/03/02 02:43:59;;;;;;;8.73;4.25;;;-2.50;99.90;;;;;;5053141;28;20460;-54
2022/03/02 02:46:26;;;;;;;12.98;4.28;;;-2.60;99.90;;;;;;5044128;28;20740;-53
2022/03/02 02:48:53;;;;;;;10.88;3.90;;;-2.60;99.90;;;;;;5044214;28;20062;-55
2022/03/02 02:51:20;;;;;;;8.23;4.03;;;-2.70;99.90;;;;;;5053076;28;20132;-54
2022/03/02 02:53:47;;;;;;;10.10;4.40;;;-2.70;99.90;;;;;;5044680;28;20641;-56
2022/03/02 02:56:14;;;;;;;10.73;4.65;;;-2.80;99.90;;;;;;5041736;28;20064;-54
2022/03/02 02:58:41;;;;;;;11.43;5.05;;;-2.80;99.90;;;;;;5052530;28;20037;-56
2022/03/02 03:01:08;;;;;;;12.52;5.13;;;-2.80;99.90;;;;;;5052827;28;20041;-56
2022/03/02 03:03:35;;;;;;;15.95;5.38;;;-2.90;99.90;;;;;;5036424;28;20048;-55
2022/03/02 03:06:04;;;;;;;14.07;5.65;;;-2.80;99.90;;;;;;5044623;28;20397;-56
2022/03/02 03:08:30;;;;;;;14.05;5.72;;;-2.80;99.90;;;;;;5052347;28;20049;-52
2022/03/02 03:10:57;;;;;;;14.43;6.15;;;-2.80;99.90;;;;;;5052768;28;20528;-57
2022/03/02 03:13:24;;;;;;;17.10;5.95;;;-2.80;99.90;;;;;;5042051;28;20560;-54
2022/03/02 03:15:52;;;;;;;15.38;5.68;;;-2.80;99.90;;;;;;5048107;28;20417;-53
2022/03/02 03:18:18;;;;;;;;;;;-2.80;99.90;;;;;;5052741;28;20489;-53
2022/03/02 03:20:45;;;;;;;12.35;4.90;;;-2.70;99.90;;;;;;5048260;28;19963;-52
2022/03/02 03:23:12;;;;;;;8.48;3.72;;;-2.80;99.90;;;;;;5040573;28;20057;-57
2022/03/02 03:25:40;;;;;;;13.63;4.78;;;-3.10;99.90;;;;;;5052209;28;20489;-54
2022/03/02 03:28:07;;;;;;;9.18;4.50;;;-3.20;99.90;;;;;;5052037;28;20044;-57
2022/03/02 03:30:34;;;;;;;11.02;4.38;;;-3.40;99.90;;;;;;5047812;28;20036;-55
2022/03/02 03:33:04;;;;;;;12.05;4.00;;;-3.40;99.90;;;;;;5043818;28;20037;-56
2022/03/02 03:35:31;;;;;;;12.80;5.68;;;-3.50;99.90;;;;;;5052282;28;20563;-55
2022/03/02 03:37:58;;;;;;;;;;;-3.60;99.90;;;;;;5052183;28;20110;-55
2022/03/02 03:40:25;;;;;;;13.63;3.97;;;-3.70;99.90;;;;;;5038784;28;19996;-54
2022/03/02 03:42:54;;;;;;;11.00;4.45;;;-3.60;99.90;;;;;;5043797;28;20045;-56
2022/03/02 03:45:21;;;;;;;12.27;4.93;;;-3.60;99.90;;;;;;5051959;28;20037;-55
2022/03/02 03:47:49;;;;;;;8.00;3.67;;;-3.50;99.90;;;;;;5046023;28;20564;-52
2022/03/02 03:50:16;;;;;;;;;;;-3.50;99.90;;;;;;5041572;28;20045;-57
2022/03/02 03:52:43;;;;;;;7.88;3.80;;;-3.50;99.90;;;;;;5051926;28;19963;-54
2022/03/02 03:55:11;;;;;;;;;;;-3.50;99.90;;;;;;5052400;28;20060;-54
2022/03/02 03:57:38;;;;;;;6.50;2.53;;;-3.50;99.90;;;;;;5042866;28;20004;-54
2022/03/02 04:00:11;;;;;;;8.13;3.55;;;-3.50;99.90;;;;;;5038073;28;20079;-57
2022/03/02 04:02:39;;;;;;;8.48;3.97;;;-3.60;99.90;;;;;;5051744;28;20053;-55
2022/03/02 04:05:06;;;;;;;11.80;4.82;;;-3.60;99.90;;;;;;5051768;28;20498;-57
2022/03/02 04:07:33;;;;;;;;;;;-3.50;99.90;;;;;;5036744;28;20079;-53
2022/03/02 04:10:00;;;;;;;11.93;4.43;;;-3.50;99.90;;;;;;5043127;28;19978;-54
2022/03/02 04:12:27;;;;;;;14.27;6.32;;;-3.40;99.90;;;;;;5051654;28;20076;-55
2022/03/02 04:14:55;;;;;;;14.80;6.63;;;-3.40;99.90;;;;;;5042973;28;20045;-54
2022/03/02 04:17:23;;;;;;;14.00;5.28;;;-3.30;99.90;;;;;;5042187;28;20412;-56
2022/03/02 04:19:50;;;;;;;;;;;-3.30;99.90;;;;;;5051768;28;20159;-56
2022/03/02 04:22:16;;;;;;;14.15;5.25;;;-3.30;99.90;;;;;;5051462;28;20300;-53
2022/03/02 04:24:43;;;;;;;13.95;5.05;;;-3.20;99.90;;;;;;5049121;28;20062;-57
2022/03/02 04:27:11;;;;;;;12.30;4.70;;;-3.10;99.90;;;;;;5043217;28;20047;-52
2022/03/02 04:29:38;;;;;;;11.82;5.10;;;-3.10;99.90;;;;;;5051121;28;20132;-56
2022/03/02 04:32:05;;;;;;;14.25;4.75;;;-3.20;99.90;;;;;;5030518;28;20038;-54
2022/03/02 04:34:32;;;;;;;11.27;4.55;;;-3.20;99.90;;;;;;5042534;28;20068;-56
2022/03/02 04:36:59;;;;;;;8.27;4.13;;;-3.30;99.90;;;;;;5042918;28;20053;-54
2022/03/02 04:39:26;;;;;;;11.65;4.13;;;-3.40;99.90;;;;;;5030519;28;20501;-52
2022/03/02 04:41:53;;;;;;;12.40;4.57;;;-3.50;99.90;;;;;;5037286;28;20391;-54
2022/03/02 04:44:20;;;;;;;9.07;4.38;;;-3.50;99.90;;;;;;5031540;28;20128;-56
2022/03/02 04:46:51;;;;;;;11.38;3.80;;;-3.60;99.90;;;;;;5031261;28;20033;-55
2022/03/02 04:49:19;;;;;;;7.80;3.88;;;-3.60;99.90;;;;;;5028480;28;20080;-56
2022/03/02 04:51:47;;;;;;;9.82;4.38;;;-3.60;99.90;;;;;;5042690;28;20083;-56
2022/03/02 04:57:03;;;;;;;8.70;3.80;;;-3.60;99.90;;;;;;5028281;28;20175;-52
2022/03/02 04:59:30;;;;;;;10.02;3.80;;;-3.60;99.90;;;;;;5042302;28;20037;-56
2022/03/02 05:01:57;;;;;;;11.07;4.07;;;-3.60;99.90;;;;;;5050832;28;20044;-56
2022/03/02 05:04:25;;;;;;;10.15;3.70;;;-3.60;99.90;;;;;;5046124;28;20043;-52
2022/03/02 05:06:52;;;;;;;10.05;3.95;;;-3.50;99.90;;;;;;5040643;28;20104;-57
2022/03/02 05:09:18;;;;;;;9.15;4.15;;;-3.60;99.90;;;;;;5030634;28;20047;-53
2022/03/02 05:11:45;;;;;;;8.18;4.15;;;-3.60;99.90;;;;;;5030590;28;20091;-56
2022/03/02 05:14:12;;;;;;;10.35;3.70;;;-3.70;99.90;;;;;;5037472;28;20044;-56
2022/03/02 05:16:39;;;;;;;11.13;4.32;;;-3.70;99.90;;;;;;5030750;28;20049;-52
2022/03/02 05:19:06;;;;;;;11.57;4.10;;;-3.70;99.90;;;;;;5030818;28;20614;-56
2022/03/02 05:21:33;;;;;;;9.70;3.53;;;-3.90;99.90;;;;;;5032349;28;20044;-57
2022/03/02 05:24:00;;;;;;;6.47;3.15;;;-3.90;99.90;;;;;;5033820;28;20117;-53
2022/03/02 05:26:27;;;;;;;7.82;3.70;;;-3.80;99.90;;;;;;5029586;28;20030;-54
2022/03/02 05:28:54;;;;;;;9.23;3.90;;;-3.80;99.90;;;;;;5030632;28;20127;-54
2022/03/02 05:31:23;;;;;;;15.55;4.55;;;-3.70;99.90;;;;;;5032321;28;20060;-54
2022/03/02 05:33:51;;;;;;;12.80;4.07;;;-3.70;99.90;;;;;;5046246;28;20509;-53
2022/03/02 05:36:24;;;;;;;8.57;4.45;;;-3.70;99.90;;;;;;5039053;28;20512;-56
2022/03/02 05:38:52;;;;;;;13.85;5.05;;;-3.80;99.90;;;;;;5036415;28;20037;-57
2022/03/02 05:41:20;;;;;;;11.95;5.07;;;-3.80;99.90;;;;;;5049850;28;20049;-55
2022/03/02 05:43:48;;;;;;;17.42;6.78;;;-3.80;99.90;;;;;;5052150;28;20116;-54
2022/03/02 05:46:15;;;;;;;12.70;6.25;;;-3.80;99.90;;;;;;5042675;28;20053;-54
2022/03/02 05:48:42;;;;;;;;;;;-3.80;99.90;;;;;;5038577;28;20107;-53
2022/03/02 05:51:09;;;;;;;16.35;6.13;;;-3.70;99.90;;;;;;5040698;28;20409;-54
2022/03/02 05:53:36;;;;;;;16.73;6.88;;;-3.70;99.90;;;;;;5033640;28;20111;-57
2022/03/02 05:56:03;;;;;;;19.10;6.05;;;-3.70;99.90;;;;;;5033775;28;20542;-52
2022/03/02 05:58:31;;;;;;;19.58;7.15;;;-3.50;99.90;;;;;;5031941;28;20046;-56
2022/03/02 06:00:59;;;;;;;19.88;7.47;;;-3.60;99.90;;;;;;5041639;28;20560;-58
2022/03/02 06:03:27;;;;;;;13.48;6.78;;;-3.60;99.90;;;;;;5034703;28;20046;-56
2022/03/02 06:05:54;;;;;;;30.02;11.25;;;-3.50;99.90;;;;;;5030129;28;20091;-58
2022/03/02 06:08:21;;;;;;;;;;;-3.50;99.90;;;;;;5033279;28;20072;-59
2022/03/02 06:10:48;;;;;;;28.98;12.43;;;-3.50;99.90;;;;;;5033804;28;19975;-57
2022/03/02 06:13:16;;;;;;;25.48;10.02;;;-3.50;99.90;;;;;;5029905;28;20486;-52
2022/03/02 06:15:43;;;;;;;21.27;8.32;;;-3.50;99.90;;;;;;5045261;28;20068;-56
2022/03/02 06:18:10;;;;;;;15.27;7.03;;;-3.40;99.90;;;;;;5053095;28;20045;-57
2022/03/02 06:20:37;;;;;;;17.48;7.10;;;-3.40;99.90;;;;;;5042655;28;20037;-54
2022/03/02 06:23:04;;;;;;;20.60;6.88;;;-3.30;99.90;;;;;;5039462;28;20067;-55
2022/03/02 06:25:31;;;;;;;15.52;6.63;;;-3.20;99.90;;;;;;5053456;28;20044;-56
2022/03/02 06:28:02;;;;;;;15.50;6.68;;;-3.10;99.90;;;;;;5053225;28;20090;-55
2022/03/02 06:30:29;;;;;;;16.30;6.63;;;-3.00;99.90;;;;;;5040762;28;20047;-56
2022/03/02 06:32:56;;;;;;;18.20;7.47;;;-3.00;99.90;;;;;;5044939;28;20516;-56
2022/03/02 06:35:23;;;;;;;16.77;7.45;;;-3.00;99.90;;;;;;5053184;28;20045;-55
2022/03/02 06:37:50;;;;;;;15.85;7.15;;;-2.90;99.90;;;;;;5048979;28;20040;-52
2022/03/02 06:40:17;;;;;;;17.13;6.18;;;-2.90;99.90;;;;;;5044870;28;20044;-56
2022/03/02 06:42:50;;;;;;;16.55;5.70;;;-2.90;99.90;;;;;;5053026;28;20102;-56
2022/03/02 06:45:24;;;;;;;18.17;7.05;;;-2.90;99.90;;;;;;5053044;28;20091;-56
2022/03/02 06:48:11;;;;;;;18.13;7.60;;;-2.80;99.90;;;;;;5042727;28;20128;-53
2022/03/02 06:50:42;;;;;;;18.55;7.90;;;-2.80;99.90;;;;;;5013540;28;20068;-56
2022/03/02 06:53:13;;;;;;;17.33;7.95;;;-2.80;99.90;;;;;;5013144;28;20050;-56
2022/03/02 06:55:44;;;;;;;21.40;8.25;;;-2.80;99.90;;;;;;5012000;28;20049;-53
2022/03/02 06:58:14;;;;;;;25.38;8.50;;;-2.80;99.90;;;;;;5040331;28;20045;-55
2022/03/02 07:00:48;;;;;;;19.13;7.22;;;-2.70;99.90;;;;;;5053095;28;20056;-55
2022/03/02 07:03:18;;;;;;;11.95;6.50;;;-2.60;99.90;;;;;;5048823;28;20040;-54
2022/03/02 07:05:49;;;;;;;21.77;8.75;;;-2.50;99.90;;;;;;5039658;28;20049;-55
2022/03/02 07:08:17;;;;;;;19.48;7.15;;;-2.50;99.90;;;;;;5049259;28;20044;-54
2022/03/02 07:10:43;;;;;;;21.58;7.13;;;-2.40;99.90;;;;;;5051227;28;20033;-55
2022/03/02 07:13:10;;;;;;;16.85;8.38;;;-2.30;99.90;;;;;;5045873;28;20037;-56
2022/03/02 07:15:37;;;;;;;21.23;7.82;;;-2.10;99.90;;;;;;5044152;28;20043;-57
2022/03/02 07:18:07;;;;;;;18.25;7.90;;;-2.10;99.90;;;;;;5052149;28;20055;-54
2022/03/02 07:20:39;;;;;;;18.67;7.10;;;-2.00;99.90;;;;;;5052704;28;20452;-53
2022/03/02 07:23:15;;;;;;;17.33;6.75;;;-1.90;99.90;;;;;;5039569;28;20437;-54
2022/03/02 07:25:44;;;;;;;9.07;5.10;;;-1.80;99.90;;;;;;5052326;28;20095;-52
2022/03/02 07:28:12;;;;;;;14.40;5.70;;;-1.70;99.90;;;;;;5052026;28;20052;-52
2022/03/02 07:30:39;;;;;;;10.77;5.72;;;-1.60;99.90;;;;;;5046442;28;20036;-52
2022/03/02 07:33:06;;;;;;;21.45;7.28;;;-1.40;99.90;;;;;;5044042;28;20041;-54
2022/03/02 07:35:36;;;;;;;16.52;7.18;;;-1.10;99.90;;;;;;5052162;28;20124;-54
2022/03/02 07:38:07;;;;;;;16.65;7.10;;;-1.00;99.90;;;;;;5051833;28;20057;-56
2022/03/02 07:40:35;;;;;;;11.05;5.80;;;-0.80;99.90;;;;;;5035116;28;20465;-53
2022/03/02 07:43:02;;;;;;;14.05;5.57;;;-0.60;99.90;;;;;;5048675;28;20063;-56
2022/03/02 07:45:29;;;;;;;13.05;5.13;;;-0.50;99.90;;;;;;5052006;28;20076;-56
2022/03/02 07:47:59;;;;;;;11.75;6.47;;;-0.50;99.90;;;;;;5051490;28;20041;-53
2022/03/02 07:50:26;;;;;;;16.85;6.60;;;-0.40;99.90;;;;;;5033168;28;20048;-55
2022/03/02 07:52:55;;;;;;;14.43;5.70;;;-0.30;99.90;;;;;;5047315;28;20048;-52
2022/03/02 07:55:22;;;;;;;12.98;5.43;;;-0.10;99.90;;;;;;5051763;28;20053;-54
2022/03/02 07:57:55;;;;;;;19.10;6.90;;;-0.10;99.90;;;;;;5036434;28;20045;-57
2022/03/02 08:00:23;;;;;;;17.67;6.97;;;0.00;99.90;;;;;;5043400;28;20408;-55
2022/03/02 08:02:55;;;;;;;10.32;5.53;;;0.10;99.90;;;;;;5051450;28;20055;-56
2022/03/02 08:05:22;;;;;;;11.13;5.90;;;0.20;99.90;;;;;;5050312;28;20096;-54
2022/03/02 08:07:50;;;;;;;12.88;5.90;;;0.30;99.90;;;;;;5034282;28;20501;-54
2022/03/02 08:10:17;;;;;;;11.98;4.65;;;0.40;99.90;;;;;;5050414;28;20106;-55
2022/03/02 08:12:45;;;;;;;13.40;5.43;;;0.60;99.90;;;;;;5051368;28;20045;-55
2022/03/02 08:15:12;;;;;;;9.13;5.07;;;0.80;99.90;;;;;;5043902;28;20450;-57
2022/03/02 08:17:39;;;;;;;8.68;4.43;;;0.80;99.90;;;;;;5042939;28;20403;-54
2022/03/02 08:20:07;;;;;;;18.08;5.00;;;0.80;99.90;;;;;;5051436;28;20124;-57
2022/03/02 08:26:52;;;;;;;12.05;4.65;;;0.80;99.90;;;;;;5030521;28;20175;-57
2022/03/02 08:29:20;;;;;;;11.77;4.88;;;1.10;99.90;;;;;;5049933;28;20139;-58
2022/03/02 08:31:47;;;;;;;19.45;5.40;;;1.40;99.90;;;;;;5048154;28;20045;-56
2022/03/02 08:34:14;;;;;;;11.63;4.93;;;1.70;99.90;;;;;;5036363;28;20052;-56
2022/03/02 08:36:43;;;;;;;10.20;5.28;;;1.50;98.90;;;;;;5045345;28;20045;-55
2022/03/02 08:39:13;;;;;;;10.88;4.45;;;1.60;99.40;;;;;;5050940;28;20452;-57
2022/03/02 08:41:40;;;;;;;11.23;5.40;;;1.80;99.10;;;;;;5051038;28;20091;-58
2022/03/02 08:44:08;;;;;;;11.80;5.50;;;1.90;98.90;;;;;;5037336;28;20588;-57
2022/03/02 08:46:35;;;;;;;10.02;4.60;;;2.20;98.40;;;;;;5043904;28;20052;-58
2022/03/02 08:49:02;;;;;;;11.32;4.72;;;2.20;96.90;;;;;;5050713;28;20118;-56
2022/03/02 08:51:30;;;;;;;11.80;4.68;;;2.20;96.50;;;;;;5045821;28;20045;-57
2022/03/02 08:54:02;;;;;;;9.32;4.63;;;2.20;96.00;;;;;;5036132;28;20096;-57
2022/03/02 08:56:32;;;;;;;8.25;4.72;;;2.20;97.00;;;;;;5050786;28;20106;-57
2022/03/02 08:59:01;;;;;;;10.48;4.78;;;2.30;96.20;;;;;;5050497;28;20501;-55
2022/03/02 09:01:30;;;;;;;13.20;4.85;;;2.30;95.60;;;;;;5038554;28;20033;-56
2022/03/02 09:04:02;;;;;;;10.55;4.53;;;2.20;95.70;;;;;;5042692;28;20045;-55
2022/03/02 09:06:29;;;;;;;8.48;4.30;;;2.20;94.70;;;;;;5051213;28;20047;-57
2022/03/02 09:08:56;;;;;;;7.15;3.58;;;2.10;94.10;;;;;;5050752;28;20628;-56
2022/03/02 09:11:23;;;;;;;8.43;3.53;;;2.30;93.50;;;;;;5040561;28;20486;-57
2022/03/02 09:13:50;;;;;;;7.85;4.22;;;2.60;93.90;;;;;;5046078;28;20129;-57
2022/03/02 09:16:20;;;;;;;6.75;3.80;;;2.80;92.60;;;;;;5050913;28;20052;-55
2022/03/02 09:18:48;;;;;;;10.45;4.72;;;3.10;92.00;;;;;;5040050;28;20044;-57
2022/03/02 09:21:19;;;;;;;7.07;3.92;;;3.30;92.30;;;;;;5046308;28;20041;-57
2022/03/02 09:23:46;;;;;;;13.43;4.32;;;3.40;91.20;;;;;;5054475;28;20129;-55
2022/03/02 09:26:14;;;;;;;;;;;3.30;90.90;;;;;;5052414;28;20095;-56
2022/03/02 09:28:44;;;;;;;10.35;4.15;;;3.20;90.60;;;;;;5036662;28;19925;-57
2022/03/02 09:31:14;;;;;;;9.55;3.85;;;3.40;89.10;;;;;;5052859;28;20037;-57
2022/03/02 09:33:46;;;;;;;15.40;4.82;;;3.70;90.40;;;;;;5054183;28;20072;-55
2022/03/02 09:36:14;;;;;;;15.05;5.30;;;3.80;90.10;;;;;;5048973;28;20056;-57
2022/03/02 09:38:40;;;;;;;10.95;4.45;;;3.80;89.30;;;;;;5047819;28;20048;-56
2022/03/02 09:41:12;;;;;;;9.02;4.05;;;3.60;88.80;;;;;;5054220;28;20067;-57
2022/03/02 09:43:44;;;;;;;9.55;4.03;;;3.70;90.10;;;;;;5054186;28;20049;-56
2022/03/02 09:46:16;;;;;;;11.90;4.15;;;3.80;89.50;;;;;;5047312;28;20092;-57
2022/03/02 09:48:50;;;;;;;7.53;4.07;;;3.90;88.80;;;;;;5046831;28;20524;-57
2022/03/02 09:51:22;;;;;;;12.07;4.90;;;4.10;89.20;;;;;;5054242;28;20067;-56
2022/03/02 09:53:52;;;;;;;9.13;4.32;;;4.10;88.40;;;;;;5044166;28;20044;-56
2022/03/02 09:56:24;;;;;;;13.55;4.25;;;4.20;88.00;;;;;;5044074;28;20056;-56
2022/03/02 09:58:53;;;;;;;9.60;4.10;;;4.30;85.20;;;;;;5053754;28;20053;-57
2022/03/02 10:01:23;;;;;;;7.85;3.90;;;4.60;84.00;;;;;;5054101;28;20041;-57
2022/03/02 10:03:52;;;;;;;8.82;4.03;;;4.70;83.20;;;;;;5041692;28;20046;-57
2022/03/02 10:06:23;;;;;;;8.27;4.22;;;4.50;83.20;;;;;;5053683;28;20056;-56
2022/03/02 10:08:53;;;;;;;8.73;3.80;;;4.40;82.60;;;;;;5052264;28;20044;-56
2022/03/02 10:11:23;;;;;;;8.10;3.83;;;4.40;80.30;;;;;;5041025;28;20059;-57
2022/03/02 10:13:55;;;;;;;7.95;3.90;;;4.30;79.80;;;;;;5045434;28;20107;-56
2022/03/02 10:16:26;;;;;;;10.40;4.63;;;4.30;81.80;;;;;;5053869;28;20052;-56
2022/03/02 10:19:00;;;;;;;8.63;3.83;;;4.40;80.70;;;;;;5053174;28;20056;-56
2022/03/02 10:21:33;;;;;;;8.05;3.85;;;4.60;79.60;;;;;;5045400;28;20042;-56
2022/03/02 10:24:02;;;;;;;8.90;3.55;;;4.80;79.10;;;;;;5049942;28;20079;-57
2022/03/02 10:26:37;;;;;;;5.45;3.30;;;5.00;77.10;;;;;;5053767;28;20037;-57
2022/03/02 10:29:28;;;;;;;8.40;3.58;;;5.10;74.20;;;;;;5037163;28;20038;-57
2022/03/02 10:32:08;;;;;;;7.97;3.50;;;5.30;75.60;;;;;;5043777;28;20493;-57
2022/03/02 10:34:46;;;;;;;5.45;3.42;;;5.40;73.60;;;;;;5053445;28;20411;-57
2022/03/02 10:37:33;;;;;;;8.68;3.38;;;5.50;73.80;;;;;;5044715;28;20041;-58
2022/03/02 10:40:18;;;;;;;4.97;2.78;;;5.70;70.60;;;;;;5044631;28;20037;-57
2022/03/02 10:42:57;;;;;;;7.95;3.40;;;5.70;71.20;;;;;;5053192;28;20047;-57
2022/03/02 10:45:30;;;;;;;7.68;3.17;;;5.70;70.40;;;;;;5049143;28;20048;-55
2022/03/02 10:48:09;;;;;;;5.55;3.15;;;5.60;69.50;;;;;;5037245;28;20033;-56
2022/03/02 10:50:38;;;;;;;5.68;3.95;;;5.80;69.60;;;;;;5013180;28;20037;-56
2022/03/02 10:53:07;;;;;;;10.18;3.35;;;5.80;69.10;;;;;;5013198;28;20053;-56
2022/03/02 10:55:35;;;;;;;8.23;2.90;;;5.80;68.00;;;;;;5034139;28;20100;-57
2022/03/02 10:58:04;;;;;;;8.93;3.50;;;6.00;69.80;;;;;;5049242;28;20668;-57
2022/03/02 11:00:32;;;;;;;9.60;3.40;;;6.20;67.90;;;;;;5052700;28;20044;-58
2022/03/02 11:03:01;;;;;;;8.25;3.45;;;6.50;66.50;;;;;;5039424;28;20513;-58
2022/03/02 11:05:30;;;;;;;6.78;3.20;;;6.80;65.70;;;;;;5044436;28;20041;-58
2022/03/02 11:07:58;;;;;;;9.07;3.20;;;6.90;64.50;;;;;;5052243;28;20510;-58
2022/03/02 11:10:31;;;;;;;7.30;3.25;;;6.70;63.90;;;;;;5052570;28;20513;-58
2022/03/02 11:13:05;;;;;;;11.07;3.28;;;6.80;62.90;;;;;;5047339;28;20040;-57
2022/03/02 11:15:46;;;;;;;5.47;3.30;;;6.70;63.40;;;;;;5038156;28;20044;-58
2022/03/02 11:18:19;;;;;;;6.07;2.95;;;6.90;63.20;;;;;;5052144;28;20056;-57
2022/03/02 11:21:01;;;;;;;6.15;2.83;;;6.90;59.00;;;;;;5052713;28;20497;-58
2022/03/02 11:23:32;;;;;;;7.47;3.05;;;7.10;62.20;;;;;;5036670;28;20516;-58
2022/03/02 11:26:06;;;;;;;6.43;2.78;;;7.30;59.60;;;;;;5048675;28;20052;-58
2022/03/02 11:28:34;;;;;;;7.28;3.58;;;7.30;60.10;;;;;;5051747;28;20083;-58
2022/03/02 11:31:05;;;;;;;5.78;2.70;;;7.40;62.90;;;;;;5042465;28;20033;-58
2022/03/02 11:33:32;;;;;;;8.20;3.17;;;7.20;59.60;;;;;;5044008;28;20468;-58
2022/03/02 11:36:12;;;;;;;5.13;2.72;;;7.20;59.10;;;;;;5052034;28;20041;-57
2022/03/02 11:38:42;;;;;;;5.50;2.60;;;7.10;58.80;;;;;;5051731;28;20041;-57
2022/03/02 11:41:11;;;;;;;6.20;2.90;;;7.20;58.40;;;;;;5040407;28;20095;-58
2022/03/02 11:43:39;;;;;;;6.43;3.22;;;7.30;58.50;;;;;;5045322;28;20041;-58
2022/03/02 11:46:08;;;;;;;5.55;2.97;;;7.40;60.90;;;;;;5051936;28;20033;-58
2022/03/02 11:48:41;;;;;;;5.72;3.15;;;7.60;61.00;;;;;;5037332;28;20572;-58
2022/03/02 11:51:08;;;;;;;4.93;2.80;;;7.60;60.20;;;;;;5043623;28;20041;-58
2022/03/02 11:53:41;;;;;;;6.90;2.97;;;7.70;59.30;;;;;;5052024;28;20056;-57
2022/03/02 11:56:12;;;;;;;4.78;2.80;;;7.80;57.80;;;;;;5044330;28;20485;-59
2022/03/02 11:58:59;;;;;;;5.18;2.80;;;8.00;58.30;;;;;;5043872;28;20049;-58
2022/03/02 12:01:55;;;;;;;6.75;3.00;;;8.00;55.60;;;;;;5051746;28;20122;-58
2022/03/02 12:04:29;;;;;;;5.40;3.10;;;8.00;55.10;;;;;;5038597;28;20137;-58
2022/03/02 12:06:56;;;;;;;11.15;3.50;;;8.10;56.20;;;;;;5047808;28;20048;-58
2022/03/02 12:09:35;;;;;;;6.82;3.35;;;8.20;56.80;;;;;;5051060;28;20099;-58
2022/03/02 12:12:09;;;;;;;6.88;2.97;;;8.30;55.30;;;;;;5043340;28;20042;-58
2022/03/02 12:14:45;;;;;;;5.68;3.40;;;8.50;57.30;;;;;;5041986;28;20048;-59
2022/03/02 12:17:22;;;;;;;8.02;3.58;;;8.70;56.20;;;;;;5051348;28;20124;-58
2022/03/02 12:19:52;;;;;;;5.93;3.35;;;8.90;56.20;;;;;;5051429;28;20049;-59
2022/03/02 12:22:20;;;;;;;4.18;2.65;;;9.00;55.00;;;;;;5042372;28;20440;-59
2022/03/02 12:24:48;;;;;;;8.15;3.70;;;9.10;53.50;;;;;;5042906;28;20040;-59
2022/03/02 12:27:17;;;;;;;5.50;3.13;;;9.20;54.30;;;;;;5051852;28;20077;-58
2022/03/02 12:29:51;;;;;;;11.60;3.15;;;9.30;53.90;;;;;;5051629;28;20079;-58
2022/03/02 12:32:19;;;;;;;8.45;3.13;;;9.30;55.50;;;;;;5041621;28;20053;-59
2022/03/02 12:34:50;;;;;;;5.68;2.47;;;9.50;53.30;;;;;;5042841;28;20123;-59
2022/03/02 12:37:19;;;;;;;6.90;2.83;;;9.40;51.80;;;;;;5051054;28;20128;-59
2022/03/02 12:39:50;;;;;;;4.82;2.47;;;9.40;53.10;;;;;;5047561;28;20036;-59
2022/03/02 12:42:17;;;;;;;3.55;2.08;;;9.30;52.60;;;;;;5040413;28;20616;-58
2022/03/02 12:44:50;;;;;;;3.80;2.67;;;9.30;49.70;;;;;;5051070;28;20052;-59
2022/03/02 12:47:19;;;;;;;7.78;3.03;;;9.20;50.90;;;;;;5051481;28;20440;-59
2022/03/02 12:49:50;;;;;;;3.17;2.30;;;9.10;50.50;;;;;;5040646;28;20559;-59
2022/03/02 12:52:18;;;;;;;4.97;2.90;;;9.10;50.20;;;;;;5042706;28;20037;-58
2022/03/02 12:54:45;;;;;;;4.95;2.55;;;9.10;53.10;;;;;;5054120;28;20114;-58
2022/03/02 12:57:15;;;;;;;8.80;3.58;;;9.10;50.40;;;;;;5055225;28;20041;-58
2022/03/02 12:59:43;;;;;;;6.72;3.30;;;9.10;53.00;;;;;;5042157;28;20037;-58
2022/03/02 13:02:14;;;;;;;4.82;3.08;;;9.00;54.90;;;;;;5053110;28;20322;-58
2022/03/02 13:05:12;;;;;;;9.05;3.17;;;8.90;55.50;;;;;;5054994;28;20045;-58